createdAt,value
2018-03-09T00:00:14.199Z,92.71
2018-03-09T00:01:13.582Z,92.71
2018-03-09T00:02:13.576Z,93.46
2018-03-09T00:03:13.567Z,93.08
2018-03-09T00:04:13.559Z,93.08
2018-03-09T00:05:13.842Z,93.08
2018-03-09T00:06:13.294Z,92.9
2018-03-09T00:07:13.555Z,92.8
2018-03-09T00:08:13.291Z,92.71
2018-03-09T00:09:13.525Z,93.08
2018-03-09T00:10:13.853Z,93.18
2018-03-09T00:11:13.518Z,93.18
2018-03-09T00:12:13.500Z,92.99
2018-03-09T00:13:13.499Z,92.9
2018-03-09T00:14:13.489Z,92.8
2018-03-09T00:15:14.080Z,92.52
2018-03-09T00:16:13.484Z,92.8
2018-03-09T00:17:13.464Z,93.46
2018-03-09T00:18:13.460Z,93.18
2018-03-09T00:19:13.447Z,93.18
2018-03-09T00:20:13.854Z,93.18
2018-03-09T00:21:13.498Z,93.27
2018-03-09T00:22:13.184Z,93.27
2018-03-09T00:23:13.422Z,93.65
2018-03-09T00:24:13.160Z,93.56
2018-03-09T00:25:13.862Z,93.65
2018-03-09T00:26:13.396Z,93.56
2018-03-09T00:27:13.387Z,93.65
2018-03-09T00:28:13.380Z,93.08
2018-03-09T00:29:13.376Z,93.27
2018-03-09T00:30:14.010Z,93.65
2018-03-09T00:31:13.377Z,93.08
2018-03-09T00:32:13.098Z,93.84
2018-03-09T00:33:13.347Z,93.94
2018-03-09T00:34:13.338Z,93.84
2018-03-09T00:35:13.555Z,93.84
2018-03-09T00:36:13.063Z,93.65
2018-03-09T00:37:13.317Z,93.84
2018-03-09T00:38:13.052Z,92.9
2018-03-09T00:39:13.311Z,92.8
2018-03-09T00:40:14.052Z,92.99
2018-03-09T00:41:13.284Z,93.27
2018-03-09T00:42:13.309Z,93.75
2018-03-09T00:43:13.269Z,93.65
2018-03-09T00:44:13.262Z,93.37
2018-03-09T00:45:13.841Z,93.46
2018-03-09T00:46:12.993Z,93.46
2018-03-09T00:47:13.249Z,93.37
2018-03-09T00:48:13.229Z,93.18
2018-03-09T00:49:13.218Z,93.08
2018-03-09T00:50:13.386Z,93.27
2018-03-09T00:51:13.204Z,92.99
2018-03-09T00:52:13.202Z,93.18
2018-03-09T00:53:12.935Z,93.08
2018-03-09T00:54:13.184Z,92.99
2018-03-09T00:55:15.269Z,93.37
2018-03-09T00:56:13.167Z,93.27
2018-03-09T00:57:13.161Z,93.18
2018-03-09T00:58:13.151Z,93.27
2018-03-09T00:59:12.908Z,93.08
2018-03-09T01:00:14.476Z,93.18
2018-03-09T01:01:13.140Z,93.18
2018-03-09T01:02:13.120Z,93.37
2018-03-09T01:03:13.118Z,92.99
2018-03-09T01:04:13.109Z,93.18
2018-03-09T01:05:13.323Z,93.08
2018-03-09T01:06:12.842Z,92.99
2018-03-09T01:07:13.083Z,93.08
2018-03-09T01:08:13.076Z,92.71
2018-03-09T01:09:13.078Z,92.71
2018-03-09T01:10:13.795Z,92.61
2018-03-09T01:11:13.058Z,92.42
2018-03-09T01:12:13.049Z,92.52
2018-03-09T01:13:13.047Z,92.33
2018-03-09T01:14:13.042Z,92.14
2018-03-09T01:15:13.506Z,92.28
2018-03-09T01:16:13.023Z,92.09
2018-03-09T01:17:13.021Z,92.33
2018-03-09T01:18:13.008Z,92.37
2018-03-09T01:19:13.007Z,92.28
2018-03-09T01:20:13.558Z,92.61
2018-03-09T01:21:12.985Z,92.28
2018-03-09T01:22:12.742Z,92.09
2018-03-09T01:23:12.972Z,92.28
2018-03-09T01:24:12.963Z,92.66
2018-03-09T01:25:13.424Z,92.75
2018-03-09T01:26:12.949Z,92.09
2018-03-09T01:27:12.941Z,91.89
2018-03-09T01:28:12.933Z,92.66
2018-03-09T01:29:12.940Z,92.75
2018-03-09T01:30:13.418Z,92.66
2018-03-09T01:31:12.914Z,92.66
2018-03-09T01:32:12.914Z,92.28
2018-03-09T01:33:12.646Z,92.09
2018-03-09T01:34:12.896Z,91.99
2018-03-09T01:35:13.383Z,92.47
2018-03-09T01:36:12.707Z,92.09
2018-03-09T01:37:12.876Z,91.61
2018-03-09T01:38:12.609Z,91.89
2018-03-09T01:39:12.862Z,92.47
2018-03-09T01:40:13.840Z,92.18
2018-03-09T01:41:12.856Z,92.66
2018-03-09T01:42:12.841Z,93.08
2018-03-09T01:43:12.586Z,93.32
2018-03-09T01:44:12.827Z,93.08
2018-03-09T01:45:13.547Z,93.04
2018-03-09T01:46:12.809Z,92.94
2018-03-09T01:47:12.804Z,93.13
2018-03-09T01:48:12.800Z,93.13
2018-03-09T01:49:12.794Z,92.85
2018-03-09T01:50:13.418Z,93.04
2018-03-09T01:51:12.776Z,92.47
2018-03-09T01:52:12.514Z,92.66
2018-03-09T01:53:12.509Z,92.66
2018-03-09T01:54:12.755Z,92.66
2018-03-09T01:55:13.136Z,92.66
2018-03-09T01:56:13.545Z,92.47
2018-03-09T01:57:12.737Z,92.66
2018-03-09T01:58:12.470Z,92.71
2018-03-09T01:59:12.723Z,93.27
2018-03-09T02:00:13.437Z,92.94
2018-03-09T02:01:12.703Z,93.13
2018-03-09T02:02:12.700Z,92.71
2018-03-09T02:03:12.690Z,92.85
2018-03-09T02:04:12.429Z,92.61
2018-03-09T02:05:13.113Z,93.04
2018-03-09T02:06:12.668Z,93.08
2018-03-09T02:07:12.405Z,94.03
2018-03-09T02:08:12.397Z,93.75
2018-03-09T02:09:12.642Z,93.65
2018-03-09T02:10:13.568Z,93.8
2018-03-09T02:11:12.379Z,94.03
2018-03-09T02:12:12.631Z,93.08
2018-03-09T02:13:12.614Z,92.99
2018-03-09T02:14:12.624Z,92.9
2018-03-09T02:15:13.426Z,93.13
2018-03-09T02:16:12.596Z,93.89
2018-03-09T02:17:12.587Z,93.75
2018-03-09T02:18:12.328Z,94.08
2018-03-09T02:19:12.569Z,93.89
2018-03-09T02:20:13.479Z,93.56
2018-03-09T02:21:12.564Z,93.89
2018-03-09T02:22:12.566Z,93.84
2018-03-09T02:23:12.559Z,94.08
2018-03-09T02:24:12.537Z,93.32
2018-03-09T02:25:13.467Z,92.75
2018-03-09T02:26:12.569Z,93.04
2018-03-09T02:27:12.519Z,93.23
2018-03-09T02:28:12.579Z,93.23
2018-03-09T02:29:12.497Z,93.32
2018-03-09T02:30:13.453Z,93.23
2018-03-09T02:31:12.489Z,93.41
2018-03-09T02:32:12.487Z,93.8
2018-03-09T02:33:12.476Z,93.84
2018-03-09T02:34:12.469Z,93.84
2018-03-09T02:35:13.682Z,94.08
2018-03-09T02:36:12.452Z,93.99
2018-03-09T02:37:12.443Z,93.84
2018-03-09T02:38:12.446Z,93.89
2018-03-09T02:39:12.431Z,93.84
2018-03-09T02:40:12.834Z,93.89
2018-03-09T02:41:12.415Z,93.8
2018-03-09T02:42:12.415Z,93.84
2018-03-09T02:43:12.407Z,93.89
2018-03-09T02:44:12.395Z,93.75
2018-03-09T02:45:12.760Z,94.03
2018-03-09T02:46:12.391Z,94.13
2018-03-09T02:47:12.452Z,94.79
2018-03-09T02:48:12.381Z,94.51
2018-03-09T02:49:12.106Z,94.7
2018-03-09T02:50:13.251Z,94.32
2018-03-09T02:51:12.349Z,95.03
2018-03-09T02:52:12.350Z,94.7
2018-03-09T02:53:12.076Z,94.93
2018-03-09T02:54:12.328Z,94.6
2018-03-09T02:55:13.148Z,94.32
2018-03-09T02:56:12.313Z,94.32
2018-03-09T02:57:13.563Z,94.32
2018-03-09T02:58:12.299Z,94.6
2018-03-09T02:59:12.316Z,94.6
2018-03-09T03:00:13.044Z,94.6
2018-03-09T03:01:12.035Z,94.42
2018-03-09T03:02:12.016Z,94.89
2018-03-09T03:03:12.016Z,94.89
2018-03-09T03:04:12.254Z,94.89
2018-03-09T03:05:13.167Z,94.89
2018-03-09T03:06:12.239Z,94.7
2018-03-09T03:07:11.978Z,94.79
2018-03-09T03:08:11.976Z,94.89
2018-03-09T03:09:11.983Z,95.07
2018-03-09T03:10:12.783Z,94.7
2018-03-09T03:11:12.207Z,94.79
2018-03-09T03:12:12.240Z,94.89
2018-03-09T03:13:12.187Z,94.79
2018-03-09T03:14:12.182Z,95.17
2018-03-09T03:15:12.463Z,94.32
2018-03-09T03:16:12.174Z,94.42
2018-03-09T03:17:12.166Z,94.89
2018-03-09T03:18:12.156Z,94.89
2018-03-09T03:19:12.148Z,94.7
2018-03-09T03:20:13.274Z,94.98
2018-03-09T03:21:12.130Z,94.98
2018-03-09T03:22:12.129Z,94.89
2018-03-09T03:23:11.868Z,94.6
2018-03-09T03:24:11.863Z,94.79
2018-03-09T03:25:13.214Z,94.93
2018-03-09T03:26:12.101Z,94.89
2018-03-09T03:27:12.638Z,95.07
2018-03-09T03:28:11.841Z,94.74
2018-03-09T03:29:12.074Z,94.74
2018-03-09T03:30:12.807Z,94.93
2018-03-09T03:31:12.066Z,94.93
2018-03-09T03:32:12.058Z,94.84
2018-03-09T03:33:12.046Z,94.6
2018-03-09T03:34:12.050Z,94.7
2018-03-09T03:35:12.285Z,94.89
2018-03-09T03:36:12.025Z,94.89
2018-03-09T03:37:12.023Z,94.7
2018-03-09T03:38:12.011Z,94.98
2018-03-09T03:39:12.006Z,95.46
2018-03-09T03:40:12.456Z,95.55
2018-03-09T03:41:11.991Z,95.55
2018-03-09T03:42:11.726Z,96.22
2018-03-09T03:43:11.717Z,96.59
2018-03-09T03:44:11.967Z,96.41
2018-03-09T03:45:12.664Z,96.59
2018-03-09T03:46:11.952Z,95.46
2018-03-09T03:47:11.694Z,96.41
2018-03-09T03:48:11.684Z,95.46
2018-03-09T03:49:11.939Z,95.46
2018-03-09T03:50:12.254Z,95.55
2018-03-09T03:51:11.662Z,95.84
2018-03-09T03:52:11.910Z,96.31
2018-03-09T03:53:11.899Z,95.55
2018-03-09T03:54:11.891Z,95.65
2018-03-09T03:55:12.161Z,95.27
2018-03-09T03:56:11.880Z,95.74
2018-03-09T03:57:11.881Z,95.84
2018-03-09T03:58:11.877Z,94.79
2018-03-09T03:59:11.856Z,94.79
2018-03-09T04:00:12.884Z,94.84
2018-03-09T04:01:11.592Z,95.27
2018-03-09T04:02:11.833Z,95.07
2018-03-09T04:03:11.827Z,95.31
2018-03-09T04:04:11.817Z,95.65
2018-03-09T04:05:12.905Z,95.65
2018-03-09T04:06:11.814Z,95.65
2018-03-09T04:07:11.813Z,95.65
2018-03-09T04:08:11.790Z,95.36
2018-03-09T04:09:11.786Z,95.84
2018-03-09T04:10:12.553Z,95.55
2018-03-09T04:11:11.770Z,95.22
2018-03-09T04:12:11.767Z,95.41
2018-03-09T04:13:12.818Z,95.36
2018-03-09T04:14:11.754Z,95.41
2018-03-09T04:15:12.006Z,95.36
2018-03-09T04:16:11.736Z,95.6
2018-03-09T04:17:11.729Z,95.6
2018-03-09T04:18:11.722Z,95.22
2018-03-09T04:19:11.715Z,95.22
2018-03-09T04:20:12.338Z,95.46
2018-03-09T04:21:11.703Z,95.03
2018-03-09T04:22:11.691Z,94.56
2018-03-09T04:23:11.684Z,95.22
2018-03-09T04:24:11.421Z,94.74
2018-03-09T04:25:12.220Z,95.03
2018-03-09T04:26:11.672Z,94.74
2018-03-09T04:27:11.654Z,94.93
2018-03-09T04:28:14.101Z,95.22
2018-03-09T04:29:11.649Z,94.93
2018-03-09T04:30:12.422Z,94.89
2018-03-09T04:31:11.629Z,94.89
2018-03-09T04:32:11.620Z,95.22
2018-03-09T04:33:11.615Z,95.22
2018-03-09T04:34:11.606Z,94.89
2018-03-09T04:35:12.255Z,95.22
2018-03-09T04:36:11.590Z,95.12
2018-03-09T04:37:11.620Z,94.65
2018-03-09T04:38:11.581Z,94.65
2018-03-09T04:39:11.566Z,94.84
2018-03-09T04:40:12.321Z,95.07
2018-03-09T04:41:11.561Z,94.84
2018-03-09T04:42:11.556Z,95.12
2018-03-09T04:43:11.543Z,95.6
2018-03-09T04:44:11.533Z,95.46
2018-03-09T04:45:11.981Z,95.7
2018-03-09T04:46:11.516Z,95.65
2018-03-09T04:47:11.517Z,95.6
2018-03-09T04:48:11.503Z,95.46
2018-03-09T04:49:11.506Z,95.98
2018-03-09T04:50:12.133Z,95.27
2018-03-09T04:51:11.497Z,94.89
2018-03-09T04:52:11.484Z,94.84
2018-03-09T04:53:11.229Z,95.07
2018-03-09T04:54:11.212Z,95.55
2018-03-09T04:55:12.187Z,95.65
2018-03-09T04:56:11.459Z,95.36
2018-03-09T04:57:11.198Z,95.65
2018-03-09T04:58:11.181Z,95.74
2018-03-09T04:59:11.425Z,95.74
2018-03-09T05:00:12.131Z,95.65
2018-03-09T05:01:11.426Z,96.12
2018-03-09T05:02:11.409Z,96.03
2018-03-09T05:03:11.403Z,96.12
2018-03-09T05:04:11.402Z,96.41
2018-03-09T05:05:12.021Z,95.27
2018-03-09T05:06:11.378Z,96.22
2018-03-09T05:07:11.372Z,95.17
2018-03-09T05:08:11.114Z,96.59
2018-03-09T05:09:11.352Z,95.36
2018-03-09T05:10:12.295Z,96.22
2018-03-09T05:11:11.341Z,95.74
2018-03-09T05:12:11.384Z,95.55
2018-03-09T05:13:11.328Z,96.5
2018-03-09T05:14:11.321Z,96.12
2018-03-09T05:15:11.973Z,95.84
2018-03-09T05:16:11.302Z,95.7
2018-03-09T05:17:11.297Z,95.65
2018-03-09T05:18:11.288Z,95.17
2018-03-09T05:19:11.292Z,95.46
2018-03-09T05:20:11.494Z,95.65
2018-03-09T05:21:11.266Z,95.36
2018-03-09T05:22:11.260Z,95.65
2018-03-09T05:23:11.253Z,95.36
2018-03-09T05:24:11.242Z,95.36
2018-03-09T05:25:12.099Z,95.12
2018-03-09T05:26:10.974Z,95.17
2018-03-09T05:27:11.229Z,94.42
2018-03-09T05:28:11.214Z,94.98
2018-03-09T05:29:12.056Z,94.93
2018-03-09T05:30:11.485Z,94.65
2018-03-09T05:31:11.191Z,94.79
2018-03-09T05:32:10.932Z,94.6
2018-03-09T05:33:10.935Z,94.51
2018-03-09T05:34:10.916Z,94.74
2018-03-09T05:35:11.612Z,94.98
2018-03-09T05:36:11.168Z,94.98
2018-03-09T05:37:10.897Z,94.79
2018-03-09T05:38:11.151Z,94.98
2018-03-09T05:39:11.131Z,94.93
2018-03-09T05:40:11.576Z,95.12
2018-03-09T05:41:11.118Z,95.07
2018-03-09T05:42:11.112Z,95.17
2018-03-09T05:43:11.120Z,94.7
2018-03-09T05:44:11.603Z,94.46
2018-03-09T05:45:11.509Z,95.07
2018-03-09T05:46:11.088Z,94.93
2018-03-09T05:47:10.820Z,94.89
2018-03-09T05:48:11.073Z,94.98
2018-03-09T05:49:11.139Z,94.79
2018-03-09T05:50:11.283Z,95.07
2018-03-09T05:51:11.061Z,94.89
2018-03-09T05:52:11.042Z,94.89
2018-03-09T05:53:11.033Z,95.65
2018-03-09T05:54:11.025Z,95.17
2018-03-09T05:55:11.340Z,95.89
2018-03-09T05:56:10.759Z,95.55
2018-03-09T05:57:11.010Z,95.65
2018-03-09T05:58:10.777Z,95.27
2018-03-09T05:59:10.991Z,95.65
2018-03-09T06:00:11.757Z,95.36
2018-03-09T06:01:10.975Z,95.22
2018-03-09T06:02:10.968Z,95.17
2018-03-09T06:03:10.965Z,95.27
2018-03-09T06:04:10.956Z,95.22
2018-03-09T06:05:11.378Z,95.17
2018-03-09T06:06:10.950Z,94.98
2018-03-09T06:07:10.935Z,94.98
2018-03-09T06:08:10.677Z,95.65
2018-03-09T06:09:10.676Z,95.6
2018-03-09T06:10:11.801Z,95.98
2018-03-09T06:11:10.910Z,95.79
2018-03-09T06:12:10.645Z,95.65
2018-03-09T06:13:10.894Z,95.7
2018-03-09T06:14:10.883Z,95.7
2018-03-09T06:15:11.701Z,95.46
2018-03-09T06:16:10.868Z,95.12
2018-03-09T06:17:10.622Z,95.12
2018-03-09T06:18:10.857Z,94.84
2018-03-09T06:27:33.420Z,94.56
2018-03-09T06:28:33.399Z,94.74
2018-03-09T06:29:33.151Z,95.03
2018-03-09T06:30:33.386Z,95.03
2018-03-09T06:31:33.372Z,94.93
2018-03-09T06:32:33.359Z,95.03
2018-03-09T06:33:33.113Z,95.41
2018-03-09T06:34:33.340Z,95.41
2018-03-09T06:35:33.099Z,95.03
2018-03-09T06:36:33.332Z,94.74
2018-03-09T06:37:33.314Z,94.65
2018-03-09T06:38:33.319Z,95.03
2018-03-09T06:39:33.296Z,94.93
2018-03-09T06:40:33.297Z,94.93
2018-03-09T06:41:33.283Z,95.7
2018-03-09T06:42:33.277Z,95.6
2018-03-09T06:43:33.279Z,95.7
2018-03-09T06:44:33.016Z,94.93
2018-03-09T06:45:33.256Z,94.08
2018-03-09T06:46:33.380Z,93.8
2018-03-09T06:47:35.307Z,93.13
2018-03-09T06:48:33.230Z,93.41
2018-03-09T06:49:32.960Z,93.32
2018-03-09T06:50:33.215Z,93.04
2018-03-09T06:51:33.217Z,92.56
2018-03-09T06:52:32.941Z,92.28
2018-03-09T06:53:33.203Z,92.28
2018-03-09T06:54:33.197Z,92.09
2018-03-09T06:55:33.194Z,91.75
2018-03-09T06:56:33.185Z,91.19
2018-03-09T06:57:32.911Z,90.52
2018-03-09T06:58:32.898Z,90.9
2018-03-09T06:59:32.928Z,90.05
2018-03-09T07:00:33.151Z,90.42
2018-03-09T07:01:33.147Z,90.52
2018-03-09T07:02:35.035Z,90.42
2018-03-09T07:03:33.142Z,90.05
2018-03-09T07:04:33.145Z,90.42
2018-03-09T07:05:32.854Z,90.33
2018-03-09T07:06:33.110Z,90.23
2018-03-09T07:07:32.841Z,89.95
2018-03-09T07:08:33.100Z,89.67
2018-03-09T07:09:33.095Z,89.28
2018-03-09T07:10:33.080Z,89.09
2018-03-09T07:11:33.089Z,89.19
2018-03-09T07:12:32.821Z,89.19
2018-03-09T07:13:33.074Z,88.9
2018-03-09T07:14:33.060Z,89
2018-03-09T07:15:33.048Z,88.81
2018-03-09T07:16:32.788Z,88.62
2018-03-09T07:17:33.031Z,88.43
2018-03-09T07:18:33.027Z,88.43
2018-03-09T07:19:33.014Z,88.15
2018-03-09T07:20:32.757Z,88.24
2018-03-09T07:21:33.003Z,88.05
2018-03-09T07:22:32.744Z,88.15
2018-03-09T07:23:32.747Z,87.29
2018-03-09T07:24:33.001Z,87.71
2018-03-09T07:25:32.976Z,87.43
2018-03-09T07:26:32.972Z,88
2018-03-09T07:27:32.965Z,87.9
2018-03-09T07:28:32.960Z,87.43
2018-03-09T07:29:32.959Z,87.62
2018-03-09T07:30:32.956Z,87.19
2018-03-09T07:31:32.768Z,87.43
2018-03-09T07:32:32.763Z,86.76
2018-03-09T07:33:32.931Z,87.05
2018-03-09T07:34:32.932Z,87.52
2018-03-09T07:35:32.921Z,87.05
2018-03-09T07:36:32.918Z,86.91
2018-03-09T07:37:32.905Z,87.38
2018-03-09T07:38:32.901Z,87.71
2018-03-09T07:39:32.897Z,87.29
2018-03-09T07:40:32.890Z,87.62
2018-03-09T07:41:32.882Z,88.09
2018-03-09T07:42:32.878Z,88
2018-03-09T07:43:32.967Z,88.09
2018-03-09T07:44:32.609Z,88
2018-03-09T07:45:32.607Z,87.71
2018-03-09T07:46:32.862Z,88
2018-03-09T07:47:32.846Z,87.52
2018-03-09T07:48:32.841Z,87.14
2018-03-09T07:49:32.842Z,87.14
2018-03-09T07:50:32.585Z,87.05
2018-03-09T07:51:32.821Z,87.34
2018-03-09T07:52:32.564Z,86.95
2018-03-09T07:53:32.822Z,87.43
2018-03-09T07:54:32.806Z,86.57
2018-03-09T07:55:32.814Z,86.67
2018-03-09T07:56:32.550Z,86.29
2018-03-09T07:57:32.805Z,86
2018-03-09T07:58:32.799Z,86.1
2018-03-09T07:59:32.810Z,85.91
2018-03-09T08:00:32.598Z,85.91
2018-03-09T08:01:32.778Z,85.81
2018-03-09T08:02:32.775Z,86.67
2018-03-09T08:03:32.790Z,86
2018-03-09T08:04:32.793Z,86.1
2018-03-09T08:05:32.497Z,85.81
2018-03-09T08:06:32.786Z,85.91
2018-03-09T08:07:32.498Z,85.91
2018-03-09T08:08:32.744Z,85.81
2018-03-09T08:09:32.474Z,85.53
2018-03-09T08:10:32.472Z,85.72
2018-03-09T08:11:32.466Z,86
2018-03-09T08:12:32.467Z,85.72
2018-03-09T08:13:32.710Z,85.72
2018-03-09T08:14:32.705Z,85.62
2018-03-09T08:15:32.700Z,85.43
2018-03-09T08:16:32.443Z,85.91
2018-03-09T08:17:32.773Z,85.72
2018-03-09T08:18:33.698Z,85.34
2018-03-09T08:19:32.419Z,85.24
2018-03-09T08:20:32.671Z,84.67
2018-03-09T08:21:32.683Z,84.86
2018-03-09T08:22:32.661Z,84.81
2018-03-09T08:23:32.653Z,84.52
2018-03-09T08:24:32.665Z,83.95
2018-03-09T08:25:32.646Z,84.05
2018-03-09T08:26:32.644Z,83.76
2018-03-09T08:27:32.634Z,82.81
2018-03-09T08:28:32.376Z,82.53
2018-03-09T08:29:32.623Z,82.19
2018-03-09T08:30:32.620Z,81.24
2018-03-09T08:31:32.354Z,80.76
2018-03-09T08:32:32.614Z,80.76
2018-03-09T08:33:32.603Z,80.29
2018-03-09T08:34:32.342Z,80.1
2018-03-09T08:35:32.598Z,79.52
2018-03-09T08:36:32.604Z,79.81
2018-03-09T08:37:32.340Z,79.38
2018-03-09T08:38:32.578Z,78.99
2018-03-09T08:39:32.575Z,78.8
2018-03-09T08:40:32.313Z,78.9
2018-03-09T08:41:32.574Z,78.23
2018-03-09T08:42:32.312Z,77.66
2018-03-09T08:43:32.560Z,77.56
2018-03-09T08:44:32.554Z,77.09
2018-03-09T08:45:32.302Z,77.19
2018-03-09T08:46:32.652Z,77.37
2018-03-09T08:47:32.551Z,77.28
2018-03-09T08:48:32.548Z,77.19
2018-03-09T08:49:32.547Z,77.19
2018-03-09T08:50:32.278Z,77.09
2018-03-09T08:51:32.531Z,76.81
2018-03-09T08:52:32.527Z,77
2018-03-09T08:53:32.262Z,76.61
2018-03-09T08:54:32.522Z,77
2018-03-09T08:55:32.261Z,76.81
2018-03-09T08:56:32.507Z,77.09
2018-03-09T08:57:32.502Z,76.81
2018-03-09T08:58:32.249Z,77
2018-03-09T08:59:32.607Z,77.09
2018-03-09T09:00:32.496Z,76.56
2018-03-09T09:01:32.498Z,76.9
2018-03-09T09:02:32.492Z,75.89
2018-03-09T09:03:32.483Z,75.89
2018-03-09T09:04:32.489Z,75.51
2018-03-09T09:05:32.475Z,75.42
2018-03-09T09:06:32.223Z,75.23
2018-03-09T09:07:32.476Z,75.23
2018-03-09T09:08:32.590Z,75.51
2018-03-09T09:09:32.460Z,75.23
2018-03-09T09:10:32.457Z,75.51
2018-03-09T09:11:32.533Z,75.6
2018-03-09T09:12:32.452Z,75.04
2018-03-09T09:13:32.660Z,74.94
2018-03-09T09:14:32.445Z,74.84
2018-03-09T09:15:32.441Z,74.56
2018-03-09T09:16:32.440Z,74.12
2018-03-09T09:17:32.437Z,73.55
2018-03-09T09:18:32.435Z,73.17
2018-03-09T09:19:32.936Z,73.17
2018-03-09T09:20:32.426Z,72.78
2018-03-09T09:21:32.422Z,72.02
2018-03-09T09:22:32.419Z,72.12
2018-03-09T09:23:32.508Z,71.96
2018-03-09T09:24:32.413Z,71.77
2018-03-09T09:25:32.154Z,71.11
2018-03-09T09:26:32.413Z,70.82
2018-03-09T09:27:32.178Z,71.2
2018-03-09T09:28:32.402Z,70.82
2018-03-09T09:29:33.213Z,69.87
2018-03-09T09:30:32.401Z,69.96
2018-03-09T09:31:32.395Z,68.95
2018-03-09T09:32:32.138Z,68.95
2018-03-09T09:33:32.392Z,68.57
2018-03-09T09:34:32.928Z,68.38
2018-03-09T09:35:32.130Z,68.76
2018-03-09T09:36:32.137Z,68.85
2018-03-09T09:37:32.133Z,68.85
2018-03-09T09:38:32.383Z,69.48
2018-03-09T09:39:32.380Z,68.76
2018-03-09T09:40:32.380Z,68.66
2018-03-09T09:41:32.379Z,68.38
2018-03-09T09:42:32.372Z,68.09
2018-03-09T09:43:32.436Z,67.99
2018-03-09T09:44:32.110Z,67.8
2018-03-09T09:45:32.366Z,67.52
2018-03-09T09:46:32.370Z,67.33
2018-03-09T09:47:32.361Z,66.56
2018-03-09T09:48:32.359Z,66.94
2018-03-09T09:49:32.362Z,66.56
2018-03-09T09:50:32.355Z,66.94
2018-03-09T09:51:32.357Z,66.28
2018-03-09T09:52:32.359Z,66.38
2018-03-09T09:53:32.357Z,66.28
2018-03-09T09:54:32.349Z,66.02
2018-03-09T09:55:32.346Z,65.45
2018-03-09T09:56:32.345Z,65.55
2018-03-09T09:57:32.349Z,64.59
2018-03-09T09:58:32.341Z,64.21
2018-03-09T09:59:32.396Z,63.2
2018-03-09T10:00:32.341Z,62.71
2018-03-09T10:01:32.339Z,62.81
2018-03-09T10:02:32.337Z,62.24
2018-03-09T10:03:32.088Z,61.86
2018-03-09T10:04:32.340Z,61.38
2018-03-09T10:05:32.088Z,61.19
2018-03-09T10:06:32.333Z,60.71
2018-03-09T10:07:32.093Z,59.59
2018-03-09T10:08:32.077Z,59.59
2018-03-09T10:09:32.329Z,60.27
2018-03-09T10:10:32.068Z,60.14
2018-03-09T10:11:32.332Z,60.24
2018-03-09T10:12:32.065Z,60.33
2018-03-09T10:13:32.066Z,59.85
2018-03-09T10:14:32.322Z,59.85
2018-03-09T10:15:32.063Z,59.76
2018-03-09T10:16:32.324Z,59.56
2018-03-09T10:17:32.319Z,59.56
2018-03-09T10:18:32.380Z,59.56
2018-03-09T10:19:32.320Z,59.76
2018-03-09T10:20:32.056Z,59.28
2018-03-09T10:21:32.320Z,60.04
2018-03-09T10:22:32.053Z,60.24
2018-03-09T10:23:32.360Z,59.85
2018-03-09T10:24:32.321Z,59.76
2018-03-09T10:25:32.322Z,59.76
2018-03-09T10:26:32.328Z,59.85
2018-03-09T10:27:32.310Z,59.85
2018-03-09T10:28:32.311Z,59.09
2018-03-09T10:58:29.006Z,57.04
2018-03-09T10:59:29.006Z,57.14
2018-03-09T11:00:29.046Z,57.81
2018-03-09T11:01:28.727Z,57.62
2018-03-09T11:02:28.978Z,57.71
2018-03-09T11:03:28.971Z,57.71
2018-03-09T11:04:28.713Z,57.04
2018-03-09T11:05:28.968Z,56.85
2018-03-09T11:06:28.704Z,59.08
2018-03-09T11:07:28.959Z,57.17
2018-03-09T11:08:28.957Z,55.83
2018-03-09T11:09:28.699Z,55.83
2018-03-09T11:10:28.951Z,55.45
2018-03-09T11:11:28.949Z,55.45
2018-03-09T11:12:28.690Z,55.54
2018-03-09T11:13:29.950Z,55.64
2018-03-09T11:14:28.715Z,55.35
2018-03-09T11:15:28.961Z,55.74
2018-03-09T11:16:28.945Z,55.1
2018-03-09T11:17:28.940Z,55
2018-03-09T11:18:28.941Z,55.19
2018-03-09T11:19:28.713Z,54.8
2018-03-09T11:20:28.941Z,54.71
2018-03-09T11:21:28.941Z,55
2018-03-09T11:22:28.682Z,55
2018-03-09T11:23:28.938Z,54.61
2018-03-09T11:24:28.940Z,53.88
2018-03-09T11:25:28.944Z,53.69
2018-03-09T11:26:28.942Z,53.3
2018-03-09T11:27:28.944Z,53.3
2018-03-09T11:28:29.745Z,53.59
2018-03-09T11:29:28.697Z,53.11
2018-03-09T11:30:28.936Z,52.92
2018-03-09T11:31:28.952Z,53.2
2018-03-09T11:32:28.997Z,52.95
2018-03-09T11:33:28.941Z,52.44
2018-03-09T11:34:28.947Z,52.44
2018-03-09T11:35:28.934Z,52.63
2018-03-09T11:36:28.946Z,53.2
2018-03-09T11:37:28.946Z,53.4
2018-03-09T11:38:28.943Z,53.85
2018-03-09T11:39:28.946Z,54.14
2018-03-09T11:40:28.947Z,54.33
2018-03-09T11:41:28.691Z,54.71
2018-03-09T11:42:28.693Z,54.8
2018-03-09T11:43:28.947Z,55.67
2018-03-09T11:44:28.952Z,55.86
2018-03-09T11:45:28.695Z,55.26
2018-03-09T11:46:28.951Z,55.35
2018-03-09T11:47:28.947Z,55.26
2018-03-09T11:48:28.949Z,56.02
2018-03-09T11:49:28.952Z,56.4
2018-03-09T11:50:28.947Z,56.6
2018-03-09T11:51:28.700Z,57.07
2018-03-09T11:52:28.950Z,58.03
2018-03-09T11:53:28.957Z,58.29
2018-03-09T11:54:28.700Z,58
2018-03-09T11:55:28.956Z,58.19
2018-03-09T11:56:28.951Z,58.19
2018-03-09T11:57:28.703Z,57.9
2018-03-09T11:58:29.948Z,57.9
2018-03-09T11:59:28.690Z,58.22
2018-03-09T12:00:28.943Z,58.1
2018-03-09T12:01:28.951Z,58.29
2018-03-09T12:02:28.688Z,57.9
2018-03-09T12:03:28.691Z,58.29
2018-03-09T12:04:28.953Z,58.58
2018-03-09T12:05:28.953Z,58.48
2018-03-09T12:06:28.946Z,58.67
2018-03-09T12:07:28.944Z,59.05
2018-03-09T12:08:28.945Z,58.86
2018-03-09T12:09:28.940Z,58.76
2018-03-09T12:10:28.942Z,58.86
2018-03-09T12:11:28.937Z,59.24
2018-03-09T12:12:28.945Z,58.95
2018-03-09T12:13:28.804Z,59.81
2018-03-09T12:14:28.678Z,59.72
2018-03-09T12:15:28.936Z,59.05
2018-03-09T12:16:28.941Z,59.63
2018-03-09T12:17:28.939Z,59.63
2018-03-09T12:18:28.937Z,59.72
2018-03-09T12:19:28.675Z,59.98
2018-03-09T12:20:28.676Z,60.1
2018-03-09T12:21:28.948Z,60.55
2018-03-09T12:22:28.932Z,60.36
2018-03-09T12:23:28.941Z,61.03
2018-03-09T12:24:28.926Z,61.98
2018-03-09T12:25:28.671Z,62.55
2018-03-09T12:26:28.924Z,62.94
2018-03-09T12:27:28.924Z,63.51
2018-03-09T12:28:28.945Z,63.89
2018-03-09T12:29:28.671Z,63.89
2018-03-09T12:30:28.922Z,63.8
2018-03-09T12:31:28.922Z,63.99
2018-03-09T12:32:28.928Z,64.15
2018-03-09T12:33:28.667Z,64.15
2018-03-09T12:34:28.917Z,63.86
2018-03-09T12:35:28.666Z,65.01
2018-03-09T12:36:28.666Z,65.1
2018-03-09T12:37:28.670Z,65.1
2018-03-09T12:38:28.916Z,64.72
2018-03-09T12:39:28.915Z,64.91
2018-03-09T12:40:28.916Z,65.01
2018-03-09T12:41:28.910Z,63.99
2018-03-09T12:42:28.904Z,64.09
2018-03-09T12:43:28.917Z,64.37
2018-03-09T12:44:28.899Z,64.09
2018-03-09T12:45:28.652Z,64.18
2018-03-09T12:46:28.899Z,64.56
2018-03-09T12:47:28.896Z,64.28
2018-03-09T12:48:28.899Z,63.99
2018-03-09T12:49:28.638Z,64.18
2018-03-09T12:50:28.897Z,64.09
2018-03-09T12:51:28.634Z,64.28
2018-03-09T12:52:28.901Z,64.37
2018-03-09T12:53:28.634Z,63.8
2018-03-09T12:54:28.888Z,63.8
2018-03-09T12:55:28.889Z,63.7
2018-03-09T12:56:28.886Z,64.94
2018-03-09T12:57:28.885Z,64.18
2018-03-09T12:58:28.886Z,64.22
2018-03-09T12:59:28.629Z,63.64
2018-03-09T13:00:28.887Z,62.78
2018-03-09T13:01:28.626Z,62.59
2018-03-09T13:02:28.888Z,62.33
2018-03-09T13:03:28.884Z,61.57
2018-03-09T13:04:28.886Z,60.8
2018-03-09T13:05:28.626Z,59.66
2018-03-09T13:06:28.887Z,59.69
2018-03-09T13:07:28.926Z,59.18
2018-03-09T13:08:28.885Z,59.66
2018-03-09T13:09:28.880Z,59.66
2018-03-09T13:10:28.882Z,60.13
2018-03-09T13:11:29.011Z,60.42
2018-03-09T13:12:28.886Z,60.9
2018-03-09T13:13:28.625Z,60.71
2018-03-09T13:14:28.676Z,60.8
2018-03-09T13:15:28.879Z,60.61
2018-03-09T13:16:28.883Z,60.33
2018-03-09T13:17:28.884Z,60.61
2018-03-09T13:18:28.871Z,60.8
2018-03-09T13:19:28.620Z,60.52
2018-03-09T13:20:28.870Z,61.09
2018-03-09T13:21:28.869Z,60.9
2018-03-09T13:22:28.877Z,60.33
2018-03-09T13:23:28.901Z,60.33
2018-03-09T13:24:28.864Z,60.8
2018-03-09T13:25:28.869Z,60.9
2018-03-09T13:26:28.871Z,61.66
2018-03-09T13:27:28.869Z,61.57
2018-03-09T13:28:28.872Z,61.85
2018-03-09T13:29:29.165Z,61.76
2018-03-09T13:30:28.866Z,61.38
2018-03-09T13:31:28.868Z,61.6
2018-03-09T13:32:28.873Z,61.12
2018-03-09T13:33:28.871Z,60.26